Time;durP1;ratioP1;P1;durP2;ratioP2;P2;SDS_P1;SDS_P2;PMS_P1;PMS_P2;Temp;Humidity;BMP_temperature;BMP_pressure;BME280_temperature;BME280_humidity;BME280_pressure;Samples;Min_cycle;Max_cycle;Signal;HPM_P1;HPM_P2
2023/11/27 00:01:27;;;;;;;14.70;8.60;;;;;;;1.53;100.00;99695.81;181006;1266;44063;-62
2023/11/27 00:05:29;;;;;;;16.60;10.20;;;;;;;1.63;100.00;99694.95;181097;1265;43251;-61
2023/11/27 00:09:31;;;;;;;15.40;9.40;;;;;;;1.73;100.00;99694.23;181016;1267;43336;-61
2023/11/27 00:13:33;;;;;;;10.30;9.00;;;;;;;1.61;100.00;99698.35;180938;1265;43039;-61
2023/11/27 00:17:35;;;;;;;18.60;9.80;;;;;;;1.43;100.00;99703.83;181053;1265;58431;-60
2023/11/27 00:21:38;;;;;;;14.20;9.30;;;;;;;1.36;100.00;99705.64;181008;1265;43453;-61
2023/11/27 00:25:40;;;;;;;17.20;10.30;;;;;;;1.33;100.00;99705.25;181036;1265;43766;-61
2023/11/27 00:29:42;;;;;;;22.70;11.40;;;;;;;1.26;100.00;99712.25;181072;1265;43892;-60
2023/11/27 00:33:45;;;;;;;13.60;9.40;;;;;;;1.23;100.00;99707.52;181107;1265;43073;-61
2023/11/27 00:37:47;;;;;;;15.70;8.70;;;;;;;1.13;100.00;99708.71;180967;1267;58530;-60
2023/11/27 00:41:48;;;;;;;14.90;8.50;;;;;;;1.02;100.00;99708.59;181018;1267;43428;-61
2023/11/27 00:45:50;;;;;;;13.30;9.10;;;;;;;1.01;100.00;99698.55;181049;1265;43135;-61
2023/11/27 00:49:52;;;;;;;19.90;11.80;;;;;;;0.96;100.00;99698.95;181050;1265;43885;-61
2023/11/27 00:53:54;;;;;;;12.30;9.30;;;;;;;0.90;100.00;99688.79;181068;1265;43075;-60
2023/11/27 00:57:55;;;;;;;18.40;10.40;;;;;;;0.98;100.00;99692.21;181080;1265;58317;-60
2023/11/27 01:02:22;;;;;;;16.70;9.80;;;;;;;1.05;100.00;99696.04;181033;1265;44017;-60
2023/11/27 01:06:24;;;;;;;12.70;9.60;;;;;;;1.11;100.00;99688.56;181052;1265;43057;-60
2023/11/27 01:10:26;;;;;;;14.90;11.90;;;;;;;1.21;100.00;99689.63;181103;1265;43707;-60
2023/11/27 01:14:28;;;;;;;18.70;9.90;;;;;;;1.25;100.00;99693.06;181072;1265;43679;-60
2023/11/27 01:18:36;;;;;;;14.80;9.30;;;;;;;1.18;100.00;99699.41;180977;1265;58396;-60
2023/11/27 01:22:38;;;;;;;16.90;10.20;;;;;;;1.03;100.00;99706.80;181080;1265;43049;-60
2023/11/27 01:26:40;;;;;;;17.20;11.40;;;;;;;0.81;100.00;99707.21;181007;1265;43679;-60
2023/11/27 01:30:42;;;;;;;21.10;11.70;;;;;;;0.65;100.00;99698.58;181070;1266;43680;-60
2023/11/27 01:34:44;;;;;;;17.80;11.70;;;;;;;0.53;100.00;99689.75;180968;1266;43779;-60
2023/11/27 01:39:12;;;;;;;16.40;12.30;;;;;;;0.29;100.00;99684.84;180986;1266;58018;-60
2023/11/27 01:43:14;;;;;;;18.80;12.70;;;;;;;0.20;100.00;99677.57;180975;1265;43079;-60
2023/11/27 01:47:16;;;;;;;21.70;13.70;;;;;;;0.29;100.00;99681.52;181071;1266;43427;-60
2023/11/27 01:51:18;;;;;;;23.70;16.60;;;;;;;0.32;100.00;99684.33;181099;1265;43760;-60
2023/11/27 01:55:19;;;;;;;24.70;13.90;;;;;;;0.39;100.00;99688.30;181088;1265;43774;-60
2023/11/27 01:59:22;;;;;;;18.80;12.40;;;;;;;0.38;100.00;99692.58;181055;1265;60500;-60
2023/11/27 02:03:52;;;;;;;22.10;13.10;;;;;;;0.39;100.00;99688.38;181075;1265;43048;-61
2023/11/27 02:07:53;;;;;;;20.00;11.60;;;;;;;0.43;100.00;99686.95;180947;1265;43815;-61
2023/11/27 02:12:50;;;;;;;16.70;11.00;;;;;;;0.48;100.00;99677.09;181050;1265;43790;-61
2023/11/27 02:16:51;;;;;;;16.60;10.80;;;;;;;0.54;100.00;99674.84;181080;1265;43816;-60
2023/11/27 02:21:07;;;;;;;13.50;9.50;;;;;;;0.58;100.00;99669.27;181089;1265;58055;-60
2023/11/27 02:25:08;;;;;;;19.90;13.10;;;;;;;0.59;100.00;99661.73;181067;1265;43596;-61
2023/11/27 02:29:10;;;;;;;11.20;9.20;;;;;;;0.58;99.95;99659.33;181047;1266;43047;-60
2023/11/27 02:33:12;;;;;;;14.60;11.50;;;;;;;0.55;99.78;99653.35;180965;1265;43726;-60
2023/11/27 02:37:14;;;;;;;20.60;12.00;;;;;;;0.52;99.39;99651.41;180986;1266;43669;-62
2023/11/27 02:41:16;;;;;;;21.00;11.50;;;;;;;0.51;99.09;99651.81;180990;1265;58416;-60
2023/11/27 02:45:18;;;;;;;15.80;9.30;;;;;;;0.49;98.18;99658.20;180986;1265;43841;-61
2023/11/27 02:49:23;;;;;;;23.00;10.40;;;;;;;0.47;97.26;99660.23;180978;1265;43473;-60
2023/11/27 02:53:25;;;;;;;15.40;8.10;;;;;;;0.41;96.76;99652.67;181037;1265;43622;-61
2023/11/27 02:57:52;;;;;;;21.10;8.30;;;;;;;0.36;96.74;99642.79;181098;1265;43050;-61
2023/11/27 03:01:54;;;;;;;12.80;9.40;;;;;;;0.31;96.48;99640.92;181080;1265;58317;-61
2023/11/27 03:05:55;;;;;;;9.80;8.00;;;;;;;0.30;96.78;99634.34;180983;1265;43057;-61
2023/11/27 03:09:57;;;;;;;11.30;8.20;;;;;;;0.26;96.06;99639.94;181066;1266;43089;-61
2023/11/27 03:13:59;;;;;;;14.30;8.70;;;;;;;0.22;95.94;99642.09;180993;1265;43131;-61
2023/11/27 03:18:01;;;;;;;12.90;8.30;;;;;;;0.18;95.70;99641.21;180993;1265;43098;-61
2023/11/27 03:22:03;;;;;;;17.50;8.90;;;;;;;0.16;96.09;99631.55;181017;1266;57861;-61
2023/11/27 03:26:05;;;;;;;13.90;8.00;;;;;;;0.12;96.08;99630.67;181048;1265;43812;-61
2023/11/27 03:30:08;;;;;;;11.90;8.30;;;;;;;0.09;96.09;99633.79;180991;1265;43534;-61
2023/11/27 03:34:09;;;;;;;14.20;8.90;;;;;;;0.03;96.16;99634.42;180992;1266;43152;-61
2023/11/27 03:38:11;;;;;;;10.50;6.30;;;;;;;-0.02;96.19;99624.21;181006;1265;43714;-61
2023/11/27 03:42:13;;;;;;;8.70;6.60;;;;;;;-0.11;96.88;99622.03;181090;1265;58084;-61
2023/11/27 03:46:15;;;;;;;7.60;5.80;;;;;;;-0.13;97.37;99620.23;180964;1265;43460;-61
2023/11/27 03:50:17;;;;;;;10.90;6.40;;;;;;;-0.19;97.09;99615.25;181080;1266;43767;-61
2023/11/27 03:54:19;;;;;;;14.50;8.30;;;;;;;-0.20;97.40;99610.26;180973;1265;43613;-61
2023/11/27 03:58:22;;;;;;;10.10;7.40;;;;;;;-0.23;97.37;99609.84;180975;1265;43697;-61
2023/11/27 04:02:23;;;;;;;11.00;6.50;;;;;;;-0.32;97.25;99611.70;181010;1265;58051;-61
2023/11/27 04:06:54;;;;;;;11.80;9.10;;;;;;;-0.38;97.75;99609.37;181074;1265;43886;-61
2023/11/27 04:10:55;;;;;;;12.00;8.70;;;;;;;-0.45;98.03;99606.56;181043;1268;43757;-61
2023/11/27 04:14:57;;;;;;;12.00;7.00;;;;;;;-0.49;98.78;99605.36;180998;1265;43180;-61
2023/11/27 04:18:59;;;;;;;10.10;6.30;;;;;;;-0.54;99.20;99600.73;181018;1265;43904;-61
2023/11/27 04:23:01;;;;;;;7.90;6.80;;;;;;;-0.54;99.88;99598.45;181053;1265;59005;-62
2023/11/27 04:27:02;;;;;;;14.80;6.80;;;;;;;-0.48;100.00;99597.45;181057;1265;44084;-62
2023/11/27 04:31:05;;;;;;;10.70;6.50;;;;;;;-0.40;99.69;99597.77;181054;1265;43007;-62
2023/11/27 04:35:08;;;;;;;8.40;6.30;;;;;;;-0.40;99.44;99595.02;181028;1267;43237;-61
2023/11/27 04:39:10;;;;;;;6.50;5.80;;;;;;;-0.37;99.75;99598.71;181058;1265;43714;-61
2023/11/27 04:43:12;;;;;;;8.20;5.80;;;;;;;-0.32;99.81;99592.36;181018;1265;58520;-62
2023/11/27 04:47:14;;;;;;;9.40;5.40;;;;;;;-0.26;99.86;99586.34;181031;1265;43129;-62
2023/11/27 04:51:41;;;;;;;7.90;5.60;;;;;;;-0.26;99.51;99579.70;180996;1265;43128;-61
2023/11/27 04:55:42;;;;;;;10.00;6.40;;;;;;;-0.29;99.64;99571.84;180991;1265;43046;-62
2023/11/27 04:59:44;;;;;;;10.50;6.30;;;;;;;-0.31;99.48;99570.16;181076;1265;43094;-62
2023/11/27 05:03:46;;;;;;;11.80;6.80;;;;;;;-0.28;99.62;99566.92;181016;1265;58094;-62
2023/11/27 05:08:19;;;;;;;9.20;6.80;;;;;;;-0.25;99.76;99565.89;181044;1265;43128;-63
2023/11/27 05:12:21;;;;;;;19.20;7.90;;;;;;;-0.23;99.69;99565.77;181034;1265;43042;-62
2023/11/27 05:16:33;;;;;;;14.80;9.80;;;;;;;-0.17;99.25;99570.38;181011;1265;43578;-62
2023/11/27 05:20:35;;;;;;;15.60;10.80;;;;;;;-0.14;98.48;99568.84;181017;1268;43716;-63
2023/11/27 05:24:38;;;;;;;15.90;9.90;;;;;;;-0.13;97.94;99569.87;180991;1265;58350;-63
2023/11/27 05:28:40;;;;;;;20.80;12.30;;;;;;;-0.14;97.89;99565.88;181036;1266;44090;-62
2023/11/27 05:32:42;;;;;;;51.10;15.20;;;;;;;-0.09;98.18;99565.14;181038;1266;43910;-63
2023/11/27 05:36:44;;;;;;;19.50;14.30;;;;;;;-0.09;97.78;99565.80;181002;1265;43597;-63
2023/11/27 05:40:46;;;;;;;23.40;14.20;;;;;;;-0.10;98.37;99568.11;180785;1264;268428;-65
2023/11/27 05:44:47;;;;;;;26.30;20.20;;;;;;;-0.07;98.51;99564.17;180936;1265;58189;-62
2023/11/27 05:48:49;;;;;;;25.40;20.20;;;;;;;-0.06;98.05;99559.39;181035;1265;43877;-62
2023/11/27 05:52:51;;;;;;;25.80;16.20;;;;;;;-0.05;97.77;99555.88;180974;1265;43734;-62
2023/11/27 05:56:53;;;;;;;28.90;15.90;;;;;;;-0.07;97.08;99561.55;180980;1267;43860;-61
2023/11/27 06:00:56;;;;;;;24.70;18.50;;;;;;;-0.10;96.65;99558.38;180971;1266;44021;-62
2023/11/27 06:04:58;;;;;;;40.90;21.20;;;;;;;-0.15;96.32;99559.13;181031;1265;59427;-62
2023/11/27 06:09:00;;;;;;;33.70;22.20;;;;;;;-0.20;96.27;99556.41;181007;1265;43840;-61
2023/11/27 06:13:02;;;;;;;23.00;14.90;;;;;;;-0.27;95.74;99548.90;180927;1267;43701;-62
2023/11/27 06:17:05;;;;;;;19.20;12.70;;;;;;;-0.35;95.67;99554.02;181022;1265;43756;-61
2023/11/27 06:21:35;;;;;;;18.70;9.60;;;;;;;-0.48;95.95;99550.07;180913;1267;43095;-61
2023/11/27 06:25:37;;;;;;;15.80;12.50;;;;;;;-0.65;97.44;99555.73;180939;1266;58364;-61
2023/11/27 06:29:39;;;;;;;18.80;10.50;;;;;;;-0.72;98.10;99556.60;181030;1268;43799;-62
2023/11/27 06:33:40;;;;;;;35.40;21.70;;;;;;;-0.67;98.96;99561.61;181068;1265;43717;-62
2023/11/27 06:37:42;;;;;;;31.60;20.70;;;;;;;-0.62;99.07;99563.63;181003;1265;43874;-62
2023/11/27 06:41:44;;;;;;;41.50;22.80;;;;;;;-0.55;98.61;99566.61;180975;1265;43427;-62
2023/11/27 06:45:48;;;;;;;26.40;15.10;;;;;;;-0.52;97.65;99570.14;181064;1265;58399;-62
2023/11/27 06:49:56;;;;;;;22.40;16.20;;;;;;;-0.51;97.00;99565.05;181063;1265;43711;-62
2023/11/27 06:53:58;;;;;;;22.90;14.30;;;;;;;-0.49;97.03;99568.41;180934;1265;43104;-62
2023/11/27 06:57:59;;;;;;;26.80;16.20;;;;;;;-0.46;97.41;99571.77;180947;1268;43050;-62
2023/11/27 07:02:30;;;;;;;25.60;15.40;;;;;;;-0.46;98.25;99569.29;181025;1265;43040;-62
2023/11/27 07:06:34;;;;;;;52.10;35.50;;;;;;;-0.41;99.19;99569.45;181015;1265;58091;-63
2023/11/27 07:10:36;;;;;;;38.10;22.60;;;;;;;-0.37;99.87;99565.23;181042;1265;43116;-62
2023/11/27 07:14:38;;;;;;;35.30;18.90;;;;;;;-0.33;98.75;99560.90;181063;1265;43042;-62
2023/11/27 07:18:41;;;;;;;24.50;18.00;;;;;;;-0.32;98.93;99557.00;180950;1266;44104;-62
2023/11/27 07:22:45;;;;;;;32.60;19.70;;;;;;;-0.26;99.24;99552.52;180946;1271;43835;-62
2023/11/27 07:26:47;;;;;;;32.40;19.00;;;;;;;-0.18;99.01;99547.73;181056;1268;57658;-62
2023/11/27 07:30:51;;;;;;;22.70;14.40;;;;;;;-0.14;98.82;99550.19;181004;1265;43775;-62
2023/11/27 07:34:52;;;;;;;24.70;16.80;;;;;;;-0.08;99.04;99544.00;181004;1265;43601;-62
2023/11/27 07:38:56;;;;;;;24.80;15.20;;;;;;;0.04;99.76;99545.98;181061;1265;43841;-63
2023/11/27 07:42:58;;;;;;;18.90;13.40;;;;;;;0.16;99.85;99546.98;180978;1266;43020;-63
2023/11/27 07:47:03;;;;;;;20.00;15.60;;;;;;;0.23;99.59;99540.38;180977;1265;58361;-63
2023/11/27 07:51:07;;;;;;;23.90;14.60;;;;;;;0.33;99.43;99541.23;181075;1265;43919;-62
2023/11/27 07:55:12;;;;;;;17.20;14.40;;;;;;;0.42;99.86;99541.98;180971;1265;43434;-62
2023/11/27 07:59:16;;;;;;;31.00;18.20;;;;;;;0.54;99.27;99546.45;181061;1265;43958;-62
2023/11/27 08:03:18;;;;;;;28.10;17.50;;;;;;;0.58;98.77;99542.55;181065;1265;43069;-62
2023/11/27 08:07:20;;;;;;;29.40;18.00;;;;;;;0.58;98.41;99535.44;181018;1265;58260;-62
2023/11/27 08:11:32;;;;;;;72.10;37.20;;;;;;;0.58;98.82;99530.04;181043;1265;43729;-62
2023/11/27 08:15:34;;;;;;;53.70;29.80;;;;;;;0.58;99.72;99527.38;181108;1264;43025;-62
2023/11/27 08:19:37;;;;;;;37.00;25.10;;;;;;;0.40;99.68;99529.69;181120;1265;43154;-62
2023/11/27 08:23:42;;;;;;;46.00;25.90;;;;;;;0.28;100.00;99528.94;181038;1265;43785;-62
2023/11/27 08:27:43;;;;;;;23.50;15.80;;;;;;;0.14;100.00;99527.20;180978;1266;58043;-62
2023/11/27 08:32:37;;;;;;;19.90;13.40;;;;;;;-0.05;100.00;99526.92;180960;1265;43132;-63
2023/11/27 08:36:38;;;;;;;32.30;22.10;;;;;;;-0.13;100.00;99524.91;180980;1266;43706;-61
2023/11/27 08:40:42;;;;;;;55.70;31.70;;;;;;;-0.05;100.00;99529.39;180979;1265;43088;-62
2023/11/27 08:49:40;;;;;;;121.40;60.50;;;;;;;0.14;100.00;99522.11;181071;1266;58322;-61
2023/11/27 08:53:42;;;;;;;71.30;39.40;;;;;;;0.22;100.00;99515.30;181048;1265;43456;-61
2023/11/27 08:57:47;;;;;;;87.60;46.60;;;;;;;0.26;100.00;99508.64;181058;1265;43059;-61
2023/11/27 09:01:56;;;;;;;59.10;36.60;;;;;;;0.37;100.00;99506.13;180987;1265;43383;-61
2023/11/27 09:05:58;;;;;;;50.10;32.90;;;;;;;0.56;100.00;99501.34;181088;1265;43054;-62
2023/11/27 09:10:04;;;;;;;48.40;29.10;;;;;;;0.77;100.00;99498.29;180972;1266;58523;-62
2023/11/27 09:14:25;;;;;;;58.30;36.20;;;;;;;1.05;100.00;99498.91;180340;1266;94045;-80
2023/11/27 09:18:54;;;;;;;48.30;27.40;;;;;;;1.25;100.00;99492.36;180815;1268;91372;-62
2023/11/27 09:22:56;;;;;;;53.90;29.60;;;;;;;1.44;100.00;99488.87;180437;1265;44221;-82
2023/11/27 09:27:01;;;;;;;55.60;30.40;;;;;;;1.48;100.00;99481.35;180276;1268;43919;-83
2023/11/27 09:31:03;;;;;;;85.20;52.70;;;;;;;1.55;100.00;99472.90;180331;1265;58043;-83
2023/11/27 09:35:10;;;;;;;95.60;47.60;;;;;;;1.75;100.00;99469.99;180340;1265;44189;-82
2023/11/27 09:39:12;;;;;;;100.30;53.30;;;;;;;1.96;100.00;99467.05;180366;1266;43748;-82
2023/11/27 09:43:14;;;;;;;82.50;46.00;;;;;;;2.19;100.00;99466.75;180526;1265;43930;-82
2023/11/27 09:47:16;;;;;;;71.60;40.40;;;;;;;2.37;100.00;99464.77;180460;1265;43863;-83
2023/11/27 09:51:19;;;;;;;60.40;35.00;;;;;;;2.57;100.00;99453.77;180456;1265;59610;-82
2023/11/27 09:55:21;;;;;;;57.10;32.10;;;;;;;2.78;100.00;99449.11;180377;1265;44215;-83
2023/11/27 09:59:24;;;;;;;65.30;33.50;;;;;;;2.99;100.00;99450.31;180333;1265;44271;-83
2023/11/27 10:03:26;;;;;;;38.00;26.30;;;;;;;3.17;99.96;99450.52;180309;1264;44111;-80
2023/11/27 10:07:28;;;;;;;47.50;27.90;;;;;;;3.34;99.25;99446.14;180618;1267;44182;-80
2023/11/27 10:11:34;;;;;;;38.10;22.30;;;;;;;3.41;97.44;99441.27;180318;1266;58252;-80
2023/11/27 10:15:36;;;;;;;36.30;26.20;;;;;;;3.41;96.10;99440.73;180305;1265;44288;-83
2023/11/27 10:19:40;;;;;;;38.90;21.90;;;;;;;3.41;95.90;99436.73;180483;1266;44151;-83
2023/11/27 10:23:42;;;;;;;39.20;23.50;;;;;;;3.45;95.82;99427.54;180548;1265;44360;-83
2023/11/27 10:27:44;;;;;;;38.00;26.20;;;;;;;3.49;96.43;99422.59;180399;1265;43765;-83
2023/11/27 10:31:46;;;;;;;49.80;28.80;;;;;;;3.48;96.09;99415.08;180339;1268;59778;-83
2023/11/27 10:35:47;;;;;;;46.20;28.50;;;;;;;3.40;96.25;99406.09;180202;1265;44148;-82
2023/11/27 10:39:52;;;;;;;46.00;26.20;;;;;;;3.37;96.08;99398.98;180494;1265;43934;-82
2023/11/27 10:43:54;;;;;;;41.40;25.30;;;;;;;3.37;96.72;99390.71;180511;1265;43880;-82
2023/11/27 10:48:02;;;;;;;49.60;38.70;;;;;;;3.43;97.23;99388.08;180247;1265;44003;-83
2023/11/27 10:52:11;;;;;;;55.60;38.00;;;;;;;3.51;96.36;99383.12;180160;1266;58887;-83
2023/11/27 10:56:14;;;;;;;40.90;27.10;;;;;;;3.57;95.94;99376.95;180347;1266;44028;-83
2023/11/27 11:00:32;;;;;;;44.30;26.80;;;;;;;3.61;94.45;99371.11;180345;1265;44108;-83
2023/11/27 11:09:24;;;;;;;35.70;23.10;;;;;;;3.57;92.10;99359.42;179268;1270;43917;-87
2023/11/27 11:13:27;;;;;;;26.30;17.50;;;;;;;3.53;91.92;99358.81;179768;1269;56987;-87
2023/11/27 11:17:54;;;;;;;34.50;17.40;;;;;;;3.46;91.78;99359.30;179963;1268;43750;-86
2023/11/27 11:22:17;;;;;;;26.60;18.60;;;;;;;3.45;91.89;99348.52;179800;1269;43779;-87
2023/11/27 11:26:47;;;;;;;25.50;17.60;;;;;;;3.45;91.81;99349.02;179622;1269;44261;-85
2023/11/27 11:31:33;;;;;;;29.90;19.20;;;;;;;3.46;92.06;99353.65;179989;1268;43912;-85
2023/11/27 11:35:37;;;;;;;29.90;20.60;;;;;;;3.48;91.76;99354.57;179883;1270;59590;-87
2023/11/27 11:39:45;;;;;;;37.40;22.90;;;;;;;3.53;92.14;99352.35;180087;1270;43762;-86
2023/11/27 11:43:47;;;;;;;33.50;18.70;;;;;;;3.57;92.27;99351.84;179853;1270;43819;-85
2023/11/27 11:47:55;;;;;;;37.00;22.80;;;;;;;3.65;92.38;99348.40;179827;1268;44104;-85
2023/11/27 11:52:31;;;;;;;29.00;18.60;;;;;;;3.67;92.89;99336.48;180468;1265;43959;-83
2023/11/27 11:56:33;;;;;;;30.60;18.60;;;;;;;3.67;93.24;99328.98;180355;1265;58141;-83
2023/11/27 12:00:42;;;;;;;31.10;18.10;;;;;;;3.65;93.23;99329.13;180476;1265;43976;-83
2023/11/27 12:04:51;;;;;;;33.20;16.70;;;;;;;3.63;92.89;99327.15;180580;1266;43881;-83
2023/11/27 12:08:53;;;;;;;25.80;16.50;;;;;;;3.59;93.13;99317.55;180340;1265;44094;-82
2023/11/27 12:12:55;;;;;;;27.50;17.60;;;;;;;3.59;93.50;99313.56;180412;1265;43874;-81
2023/11/27 12:16:59;;;;;;;20.60;14.50;;;;;;;3.58;93.05;99313.11;180530;1265;59587;-82
2023/11/27 12:21:05;;;;;;;23.10;16.10;;;;;;;3.52;92.77;99308.36;180484;1266;43764;-83
2023/11/27 12:25:06;;;;;;;29.80;18.50;;;;;;;3.46;92.73;99311.44;180529;1265;44187;-83
2023/11/27 12:29:08;;;;;;;32.00;19.90;;;;;;;3.46;92.60;99303.36;180361;1267;44694;-82
2023/11/27 12:33:10;;;;;;;24.50;15.40;;;;;;;3.47;92.34;99290.19;180462;1265;43724;-82
2023/11/27 12:37:12;;;;;;;31.60;18.70;;;;;;;3.45;91.84;99283.12;180202;1267;59455;-84
2023/11/27 12:41:16;;;;;;;27.20;17.70;;;;;;;3.50;91.77;99274.13;180464;1266;44106;-85
2023/11/27 12:45:21;;;;;;;32.70;20.10;;;;;;;3.58;91.12;99276.64;180465;1266;44105;-86
2023/11/27 12:49:24;;;;;;;32.20;16.50;;;;;;;3.60;91.41;99278.94;180231;1266;44077;-84
2023/11/27 12:53:27;;;;;;;24.00;15.30;;;;;;;3.63;91.47;99276.25;180151;1265;43799;-86
2023/11/27 12:57:33;;;;;;;32.40;17.60;;;;;;;3.58;90.31;99263.78;180391;1267;60499;-84
2023/11/27 13:01:35;;;;;;;26.50;17.90;;;;;;;3.49;90.43;99250.38;180361;1269;43803;-84
2023/11/27 13:05:37;;;;;;;23.70;14.80;;;;;;;3.45;90.82;99244.52;180474;1266;44034;-85
2023/11/27 13:09:39;;;;;;;23.40;19.20;;;;;;;3.42;90.55;99235.25;180420;1265;43991;-85
2023/11/27 13:18:15;;;;;;;14.70;11.30;;;;;;;3.34;88.88;99222.48;180490;1265;59304;-83
2023/11/27 13:22:17;;;;;;;18.70;12.80;;;;;;;3.29;88.24;99220.36;180511;1266;43752;-82
2023/11/27 13:26:27;;;;;;;16.80;11.10;;;;;;;3.23;88.52;99220.77;180512;1265;43853;-83
2023/11/27 13:30:29;;;;;;;23.40;14.00;;;;;;;3.20;88.65;99215.38;180495;1266;43923;-80
2023/11/27 13:44:07;;;;;;;12.40;10.60;;;;;;;3.20;86.10;99195.78;180836;1269;44111;-63
2023/11/27 13:48:25;;;;;;;18.20;10.40;;;;;;;3.22;86.28;99184.61;180800;1270;43301;-62
2023/11/27 13:52:30;;;;;;;18.20;10.40;;;;;;;3.23;85.62;99181.03;180667;1272;43711;-63
2023/11/27 13:56:35;;;;;;;14.80;8.90;;;;;;;3.18;85.99;99185.25;180685;1269;43023;-62
2023/11/27 14:00:43;;;;;;;19.80;10.30;;;;;;;3.11;86.84;99183.54;180906;1269;57819;-62
2023/11/27 14:04:53;;;;;;;19.10;10.60;;;;;;;3.06;87.81;99176.90;180656;1269;43112;-62
2023/11/27 14:09:03;;;;;;;9.60;7.70;;;;;;;3.03;88.71;99170.14;180861;1269;43678;-61
2023/11/27 14:13:14;;;;;;;18.80;11.20;;;;;;;3.02;88.23;99165.45;180854;1270;43126;-62
2023/11/27 14:17:29;;;;;;;22.10;16.00;;;;;;;3.01;87.74;99157.46;180872;1269;43053;-63
2023/11/27 14:29:49;;;;;;;19.90;14.80;;;;;;;2.96;84.87;99144.81;180851;1269;43009;-63
2023/11/27 14:34:24;;;;;;;21.90;19.40;;;;;;;2.85;84.66;99136.68;180725;1269;43207;-63
2023/11/27 14:38:27;;;;;;;12.10;8.00;;;;;;;2.75;84.84;99129.27;180833;1270;43801;-61
2023/11/27 14:42:30;;;;;;;12.80;9.10;;;;;;;2.65;85.35;99130.45;180896;1268;57730;-61
2023/11/27 14:46:31;;;;;;;13.20;6.90;;;;;;;2.55;86.02;99123.41;180857;1269;43236;-61
2023/11/27 14:51:09;;;;;;;13.20;7.20;;;;;;;2.48;86.74;99118.14;180542;1264;94340;-88
2023/11/27 14:55:12;;;;;;;11.50;6.90;;;;;;;2.48;87.81;99111.69;180257;1268;44121;-88
2023/11/27 15:05:19;;;;;;;14.10;8.10;;;;;;;2.48;89.02;99108.48;180636;1268;57968;-88
2023/11/27 15:09:21;;;;;;;15.80;11.20;;;;;;;2.54;88.93;99105.44;180598;1267;43791;-89
2023/11/27 15:13:26;;;;;;;17.10;9.30;;;;;;;2.56;88.27;99100.59;180773;1267;85941;-61
2023/11/27 15:17:29;;;;;;;19.80;12.50;;;;;;;2.53;87.87;99093.95;181170;1266;43413;-61
2023/11/27 15:21:33;;;;;;;20.10;11.30;;;;;;;2.54;87.81;99082.34;181130;1264;43135;-61
2023/11/27 15:25:36;;;;;;;41.70;14.40;;;;;;;2.54;87.83;99071.70;181190;1264;58847;-61
2023/11/27 15:29:39;;;;;;;14.60;10.10;;;;;;;2.48;87.36;99065.82;181142;1263;43138;-61
2023/11/27 15:33:48;;;;;;;15.70;9.60;;;;;;;2.43;87.86;99066.98;181220;1263;43834;-61
2023/11/27 15:37:51;;;;;;;18.40;13.00;;;;;;;2.37;88.54;99061.77;181231;1263;43707;-61
2023/11/27 15:42:23;;;;;;;15.10;10.30;;;;;;;2.32;88.85;99060.70;181185;1267;43115;-61
2023/11/27 15:46:25;;;;;;;16.40;10.40;;;;;;;2.29;89.49;99063.90;181228;1263;58368;-61
2023/11/27 15:50:31;;;;;;;20.40;12.80;;;;;;;2.29;90.40;99065.30;181199;1263;43751;-62
2023/11/27 15:54:33;;;;;;;21.60;13.90;;;;;;;2.26;90.91;99064.96;181178;1267;43108;-61
2023/11/27 15:58:36;;;;;;;31.90;17.30;;;;;;;2.26;91.24;99062.70;181227;1263;43178;-61
2023/11/27 16:02:38;;;;;;;33.60;17.90;;;;;;;2.25;91.17;99056.77;181185;1265;43782;-61
2023/11/27 16:06:40;;;;;;;23.60;14.90;;;;;;;2.23;91.41;99047.52;181149;1264;57417;-58
2023/11/27 16:10:44;;;;;;;24.10;13.80;;;;;;;2.18;91.44;99037.55;181170;1263;43773;-61
2023/11/27 16:14:45;;;;;;;28.70;15.50;;;;;;;2.17;91.58;99028.15;181205;1263;43098;-61
2023/11/27 16:18:47;;;;;;;25.50;14.40;;;;;;;2.09;91.91;99017.31;181154;1263;43619;-61
2023/11/27 16:22:50;;;;;;;31.40;16.10;;;;;;;2.07;92.43;99008.54;181135;1263;43207;-61
2023/11/27 16:26:51;;;;;;;27.50;19.00;;;;;;;2.08;92.69;99000.91;181168;1264;59290;-61
2023/11/27 16:30:53;;;;;;;24.00;14.80;;;;;;;2.06;93.10;98994.90;181135;1264;43460;-62
2023/11/27 16:34:56;;;;;;;23.90;15.20;;;;;;;2.05;93.83;98984.88;181197;1263;43054;-61
2023/11/27 16:39:05;;;;;;;25.00;14.80;;;;;;;2.03;94.06;98971.54;181177;1263;43873;-61
2023/11/27 16:43:06;;;;;;;22.70;14.70;;;;;;;2.03;94.27;98965.41;181091;1263;44066;-62
2023/11/27 16:47:09;;;;;;;24.30;14.20;;;;;;;2.05;94.55;98967.36;181151;1263;59071;-62
2023/11/27 16:51:25;;;;;;;25.60;13.40;;;;;;;2.04;94.68;98963.05;181136;1264;43422;-62
2023/11/27 16:55:29;;;;;;;18.90;11.90;;;;;;;2.06;94.58;98961.56;181124;1264;43851;-62
2023/11/27 16:59:31;;;;;;;25.20;14.90;;;;;;;2.11;94.71;98964.72;181033;1264;43475;-62
2023/11/27 17:03:33;;;;;;;32.60;16.30;;;;;;;2.11;94.40;98959.76;181093;1263;43894;-62
2023/11/27 17:07:35;;;;;;;17.40;12.60;;;;;;;2.11;94.49;98948.94;181127;1264;58333;-62
2023/11/27 17:11:48;;;;;;;20.30;13.70;;;;;;;2.07;94.19;98940.30;181082;1263;43861;-61
2023/11/27 17:15:50;;;;;;;20.20;13.20;;;;;;;2.07;94.14;98933.34;181148;1263;43111;-61
2023/11/27 17:19:53;;;;;;;22.20;15.60;;;;;;;2.07;93.95;98930.36;181138;1267;43133;-61
2023/11/27 17:24:01;;;;;;;35.10;17.10;;;;;;;2.04;94.05;98909.05;181055;1262;43648;-62
2023/11/27 17:28:06;;;;;;;28.90;17.00;;;;;;;1.99;93.59;98902.20;180361;1267;59552;-82
2023/11/27 17:32:08;;;;;;;22.80;15.00;;;;;;;1.91;94.32;98890.01;180348;1266;44206;-83
2023/11/27 17:36:09;;;;;;;31.60;19.10;;;;;;;1.89;93.34;98890.84;180455;1266;44276;-83
2023/11/27 17:40:12;;;;;;;34.80;19.50;;;;;;;1.90;92.93;98884.98;180303;1265;267815;-84
2023/11/27 17:44:14;;;;;;;32.90;17.00;;;;;;;1.87;92.71;98879.39;180191;1266;44229;-84
2023/11/27 17:48:18;;;;;;;22.10;15.10;;;;;;;1.86;92.84;98877.20;180278;1267;59240;-84
2023/11/27 17:52:20;;;;;;;26.50;18.00;;;;;;;1.89;92.97;98868.11;180373;1266;44179;-82
2023/11/27 17:56:23;;;;;;;24.70;13.70;;;;;;;1.90;93.33;98865.94;180241;1266;44165;-83
2023/11/27 18:00:35;;;;;;;24.20;17.60;;;;;;;1.89;93.64;98864.77;180333;1266;44449;-85
2023/11/27 18:04:39;;;;;;;30.90;18.80;;;;;;;1.90;93.28;98856.50;180293;1267;44061;-86
2023/11/27 18:08:41;;;;;;;21.70;13.60;;;;;;;1.88;91.98;98846.83;180345;1267;59630;-84
2023/11/27 18:12:43;;;;;;;28.20;14.00;;;;;;;1.90;91.15;98842.15;180457;1265;44088;-84
2023/11/27 18:16:45;;;;;;;21.80;15.20;;;;;;;1.92;90.28;98830.63;180307;1265;44015;-83
2023/11/27 18:20:48;;;;;;;20.00;13.00;;;;;;;1.91;89.90;98828.79;180276;1266;44072;-84
2023/11/27 18:24:49;;;;;;;26.00;15.10;;;;;;;1.91;90.27;98824.95;180480;1265;44162;-85
2023/11/27 18:28:52;;;;;;;25.50;15.30;;;;;;;1.91;90.94;98819.35;180302;1267;58161;-86
2023/11/27 18:32:54;;;;;;;28.00;15.80;;;;;;;1.91;91.03;98810.46;180333;1266;44294;-83
2023/11/27 18:36:56;;;;;;;31.50;15.30;;;;;;;1.92;90.87;98807.20;180450;1265;44023;-85
2023/11/27 18:40:58;;;;;;;23.80;16.50;;;;;;;1.97;91.17;98798.27;180301;1265;44171;-86
2023/11/27 18:45:00;;;;;;;21.10;13.60;;;;;;;2.00;91.09;98793.17;180326;1265;43823;-85
2023/11/27 18:49:02;;;;;;;19.90;13.10;;;;;;;1.99;91.40;98789.38;180380;1265;58139;-86
2023/11/27 18:53:04;;;;;;;22.10;16.30;;;;;;;2.00;91.52;98784.98;180442;1265;43910;-85
2023/11/27 18:57:06;;;;;;;22.30;13.50;;;;;;;1.99;92.24;98788.02;180342;1266;44153;-85
2023/11/27 19:01:08;;;;;;;29.10;15.30;;;;;;;1.98;92.42;98786.70;180367;1264;43906;-83
2023/11/27 19:05:11;;;;;;;29.70;17.10;;;;;;;1.94;92.64;98784.02;180362;1265;43772;-84
2023/11/27 19:09:16;;;;;;;30.80;20.20;;;;;;;1.91;93.20;98790.88;180513;1265;59935;-85
2023/11/27 19:13:18;;;;;;;44.10;29.70;;;;;;;1.90;93.37;98789.70;180352;1266;44222;-85
2023/11/27 19:17:20;;;;;;;28.20;20.40;;;;;;;1.93;93.59;98783.39;180411;1265;43952;-81
2023/11/27 19:21:24;;;;;;;64.40;48.30;;;;;;;1.93;93.30;98782.69;180310;1265;44139;-81
2023/11/27 19:25:27;;;;;;;58.60;33.50;;;;;;;1.96;93.51;98781.74;180492;1265;43852;-84